< < Back
Terminal Aerodrome Forecast


Current Version              Previous Versions:   1  2  3  4  5  6  7  8  9  

Terminal Aerodrome Forecast

749
FTUS44 KBMX 281139
TAFBHM
TAF
KBHM 281139Z 2812/2912 17005KT P6SM OVC008
     FM281500 20006KT P6SM BKN015
     FM281600 24007KT P6SM BKN035
     FM281900 27007KT P6SM SCT050=

Latest METAR

426
SAUS70 KWBC 291000 RRF
MTRBHM
METAR KBHM 290953Z 00000KT 10SM CLR 17/16 A3002 RMK AO2 SLP158
T01720156


USA.gov is the U.S. government's official web portal to all federal, state and local government web resources and services.